Dagmar, MT (59219)

6:20 AM MDT on July 27, 2016 (GMT -0600)
745 Lone Star Road | | Change Station

Elev 2448 ft 48.77 °N, 104.35 °W | Updated 2 minutes ago

Partly Cloudy
Partly Cloudy
59.1 °F
Feels Like 59.1 °F
N
2.0
Wind Variable Wind from East
Gusts 5.0 mph

Today
High -- | Low -- °F
--% Chance of Precip.
Yesterday
High -- | Low -- °F
Precip. -- in
Pressure 30.10 in
Visibility 10.0 miles
Clouds Few 8000 ft
Dew Point 55 °F
Humidity 87%
Rainfall 0.00 in
Snow Depth Not available.
5:25 AM 8:40 PM
Last Quarter, 44% visible
METAR KISN 271152Z AUTO 04004KT 10SM FEW080 17/12 A3012 RMK AO2 SLP193 T01670122 10183 20144 50006
Pressure 30.10 in
Visibility 10.0 miles
Clouds Few 8000 ft
Dew Point 55 °F
Humidity 87%
Rainfall 0.00 in
Snow Depth Not available.
5:25 AM 8:40 PM
Last Quarter, 44% visible
METAR KISN 271152Z AUTO 04004KT 10SM FEW080 17/12 A3012 RMK AO2 SLP193 T01670122 10183 20144 50006

10-Day Weather Forecast

Almanac

Astronomy

Jul. 27, 2016 Rise Set
Actual Time
Civil Twilight
Nautical Twilight
Astronomical Twilight
Moon
Length of Visible Light
Length of Day
Tomorrow will be .
, % of the Moon is Illuminated

Today's Extremes

State Highs State Lows

Community

WunderPhotos

Upload Photos

1,927,836 photos uploaded!

WunderBlog® & News

Nearby

Air Quality

  Air Quality AQ Index Pollutant
Not available.

Snow Depth

Station Depth Elevation

Earthquake Activity

City Distance Mag. Time & Date
Minimum magnitude displayed is 2.5.

Coastal Water Temperatures

Place Temperature

Stations

Nearby Weather Stations

Station Location Temp. Windchill Dew Point Humidity Wind Precip. Elev Updated Type
                   

Watches & Warnings

There are currently no watches in effect.